Time,TemperatureF,DewpointF,PressureIn,WindDirection,WindDirectionDegrees,WindSpeedMPH,WindSpeedGustMPH,Humidity,HourlyPrecipIn,Conditions,Clouds,dailyrainin,SoftwareType,DateUTC
2013-06-06 00:02:00,74.6,74.6,29.88,East,99,3.0,5.0,100,0.39,,,0.12,Wunderground v.1.15,2013-06-06 04:02:00,
2013-06-06 00:04:00,74.2,74.2,29.88,SSW,210,3.0,6.0,100,1.65,,,0.16,Wunderground v.1.15,2013-06-06 04:04:00,
2013-06-06 00:10:00,73.9,73.9,29.88,SSE,165,4.0,4.0,100,0.87,,,0.32,Wunderground v.1.15,2013-06-06 04:10:00,
2013-06-06 00:12:00,73.7,73.7,29.88,SSE,164,3.0,4.0,100,1.52,,,0.36,Wunderground v.1.15,2013-06-06 04:12:00,
2013-06-06 00:14:00,73.5,73.5,29.88,SE,136,2.0,4.0,100,0.44,,,0.38,Wunderground v.1.15,2013-06-06 04:14:00,
2013-06-06 00:20:00,73.3,73.3,29.88,SE,130,2.0,2.0,100,0.43,,,0.41,Wunderground v.1.15,2013-06-06 04:20:00,
2013-06-06 00:26:00,73.3,73.3,29.88,SE,130,1.0,2.0,100,0.22,,,0.44,Wunderground v.1.15,2013-06-06 04:26:00,
2013-06-06 00:32:00,73.5,73.5,29.87,SE,131,0.0,1.0,100,0.10,,,0.44,Wunderground v.1.15,2013-06-06 04:32:00,
2013-06-06 00:38:00,74.0,74.0,29.87,ESE,117,1.0,2.0,100,0.05,,,0.44,Wunderground v.1.15,2013-06-06 04:38:00,
2013-06-06 00:44:00,74.6,74.6,29.88,SSE,165,1.0,2.0,100,0.04,,,0.45,Wunderground v.1.15,2013-06-06 04:44:00,
2013-06-06 00:50:00,74.6,74.6,29.88,SSE,165,5.0,7.0,100,4.00,,,0.69,Wunderground v.1.15,2013-06-06 04:50:00,
2013-06-06 00:56:00,73.7,73.7,29.88,South,169,10.0,15.0,100,3.56,,,0.99,Wunderground v.1.15,2013-06-06 04:56:00,
2013-06-06 01:02:00,73.5,73.5,29.88,SE,138,8.0,10.0,100,2.94,,,1.25,Wunderground v.1.15,2013-06-06 05:02:00,
2013-06-06 01:08:00,73.0,73.0,29.88,SE,141,4.0,10.0,100,1.14,,,1.48,Wunderground v.1.15,2013-06-06 05:08:00,
2013-06-06 01:14:00,72.0,72.0,29.85,ESE,120,5.0,10.0,100,0.17,,,1.50,Wunderground v.1.15,2013-06-06 05:14:00,
2013-06-06 01:20:00,72.0,72.0,29.85,ESE,116,3.0,3.0,100,0.06,,,1.50,Wunderground v.1.15,2013-06-06 05:20:00,
2013-06-06 01:26:00,72.0,72.0,29.85,SSE,152,2.0,3.0,100,0.04,,,1.50,Wunderground v.1.15,2013-06-06 05:26:00,
2013-06-06 01:32:00,72.5,72.5,29.86,SE,131,2.0,2.0,100,0.00,,,1.50,Wunderground v.1.15,2013-06-06 05:32:00,
2013-06-06 01:38:00,73.0,73.0,29.86,SE,128,2.0,2.0,100,0.00,,,1.50,Wunderground v.1.15,2013-06-06 05:38:00,
2013-06-06 01:44:00,73.5,73.5,29.86,ESE,121,2.0,4.0,100,0.00,,,1.50,Wunderground v.1.15,2013-06-06 05:44:00,
2013-06-06 01:50:00,73.5,73.5,29.86,SSE,151,2.0,2.0,100,0.00,,,1.50,Wunderground v.1.15,2013-06-06 05:50:00,
2013-06-06 01:56:00,73.7,73.7,29.86,NW,309,4.0,14.0,100,0.00,,,1.50,Wunderground v.1.15,2013-06-06 05:56:00,
2013-06-06 02:02:00,73.5,73.5,29.87,NW,316,10.0,10.0,100,1.45,,,1.60,Wunderground v.1.15,2013-06-06 06:02:00,
2013-06-06 02:08:00,73.5,73.5,29.87,NNW,339,6.0,10.0,100,2.88,,,1.75,Wunderground v.1.15,2013-06-06 06:08:00,
2013-06-06 02:14:00,73.5,73.5,29.86,North,349,6.0,14.0,100,0.17,,,1.82,Wunderground v.1.15,2013-06-06 06:14:00,
2013-06-06 02:20:00,73.3,73.3,29.86,North,350,12.0,13.0,100,0.15,,,1.84,Wunderground v.1.15,2013-06-06 06:20:00,
2013-06-06 02:26:00,73.2,73.2,29.86,NNW,346,11.0,13.0,100,0.16,,,1.85,Wunderground v.1.15,2013-06-06 06:26:00,
2013-06-06 02:32:00,73.2,73.2,29.85,North,0,6.0,8.0,100,0.07,,,1.85,Wunderground v.1.15,2013-06-06 06:32:00,
2013-06-06 02:38:00,73.2,73.2,29.85,North,1,5.0,8.0,100,0.04,,,1.85,Wunderground v.1.15,2013-06-06 06:38:00,
2013-06-06 02:44:00,73.2,73.2,29.85,North,0,3.0,6.0,100,0.00,,,1.86,Wunderground v.1.15,2013-06-06 06:44:00,
2013-06-06 02:50:00,73.0,73.0,29.85,NW,323,4.0,4.0,100,2.09,,,1.92,Wunderground v.1.15,2013-06-06 06:50:00,
2013-06-06 02:56:00,73.0,73.0,29.85,ESE,119,3.0,4.0,100,3.39,,,2.08,Wunderground v.1.15,2013-06-06 06:56:00,
2013-06-06 03:02:00,72.7,72.7,29.82,ESE,117,2.0,3.0,100,0.13,,,2.13,Wunderground v.1.15,2013-06-06 07:02:00,
2013-06-06 03:08:00,73.0,73.0,29.82,ESE,110,2.0,3.0,100,0.06,,,2.13,Wunderground v.1.15,2013-06-06 07:08:00,
2013-06-06 03:14:00,73.0,73.0,29.82,SE,124,1.0,1.0,100,0.04,,,2.13,Wunderground v.1.15,2013-06-06 07:14:00,
2013-06-06 03:20:00,73.0,73.0,29.82,SE,136,1.0,2.0,100,0.00,,,2.13,Wunderground v.1.15,2013-06-06 07:20:00,
2013-06-06 03:28:00,73.2,73.2,29.82,SE,124,2.0,3.0,100,0.00,,,2.13,Wunderground v.1.15,2013-06-06 07:28:00,
2013-06-06 03:34:00,73.3,73.3,29.82,SSE,158,2.0,3.0,100,0.00,,,2.13,Wunderground v.1.15,2013-06-06 07:34:00,
2013-06-06 03:40:00,73.3,73.3,29.82,SE,128,2.0,2.0,100,0.00,,,2.13,Wunderground v.1.15,2013-06-06 07:40:00,
2013-06-06 03:46:00,73.3,73.3,29.83,SE,126,1.0,2.0,100,0.00,,,2.14,Wunderground v.1.15,2013-06-06 07:46:00,
2013-06-06 03:52:00,73.2,73.2,29.83,SE,126,0.0,1.0,100,0.00,,,2.14,Wunderground v.1.15,2013-06-06 07:52:00,
2013-06-06 03:58:00,73.3,73.3,29.83,SE,127,1.0,1.0,100,0.05,,,2.15,Wunderground v.1.15,2013-06-06 07:58:00,
2013-06-06 04:04:00,73.3,73.3,29.82,SE,127,1.0,2.0,100,0.05,,,2.15,Wunderground v.1.15,2013-06-06 08:04:00,
2013-06-06 04:10:00,73.5,73.5,29.82,SE,128,2.0,3.0,100,0.05,,,2.16,Wunderground v.1.15,2013-06-06 08:10:00,
2013-06-06 04:16:00,73.5,73.5,29.82,ESE,123,3.0,4.0,100,0.05,,,2.16,Wunderground v.1.15,2013-06-06 08:16:00,
2013-06-06 04:22:00,73.3,73.3,29.82,ESE,119,3.0,5.0,100,0.00,,,2.16,Wunderground v.1.15,2013-06-06 08:22:00,
2013-06-06 04:28:00,72.8,72.8,29.82,SSE,151,3.0,5.0,100,0.00,,,2.16,Wunderground v.1.15,2013-06-06 08:28:00,
2013-06-06 04:34:00,72.5,72.5,29.82,ESE,121,3.0,5.0,100,0.00,,,2.16,Wunderground v.1.15,2013-06-06 08:34:00,
2013-06-06 04:40:00,72.5,72.5,29.82,SE,137,2.0,2.0,100,0.00,,,2.16,Wunderground v.1.15,2013-06-06 08:40:00,
2013-06-06 04:46:00,72.7,72.7,29.82,SE,137,2.0,3.0,100,0.00,,,2.16,Wunderground v.1.15,2013-06-06 08:46:00,
2013-06-06 04:52:00,72.8,72.8,29.82,SSE,152,1.0,2.0,100,0.00,,,2.16,Wunderground v.1.15,2013-06-06 08:52:00,
2013-06-06 04:58:00,72.8,72.8,29.82,SSE,151,1.0,2.0,100,0.00,,,2.16,Wunderground v.1.15,2013-06-06 08:58:00,
2013-06-06 05:04:00,72.8,72.8,29.82,South,171,1.0,2.0,100,0.00,,,2.16,Wunderground v.1.15,2013-06-06 09:04:00,
2013-06-06 05:10:00,72.8,72.8,29.82,South,176,1.0,3.0,100,0.00,,,2.16,Wunderground v.1.15,2013-06-06 09:10:00,
2013-06-06 05:16:00,73.0,73.0,29.81,South,176,2.0,3.0,100,0.00,,,2.16,Wunderground v.1.15,2013-06-06 09:16:00,
2013-06-06 05:22:00,73.0,73.0,29.81,South,176,1.0,2.0,100,0.00,,,2.16,Wunderground v.1.15,2013-06-06 09:22:00,
2013-06-06 05:28:00,73.0,73.0,29.81,South,176,1.0,2.0,100,0.00,,,2.16,Wunderground v.1.15,2013-06-06 09:28:00,
2013-06-06 05:34:00,73.0,73.0,29.81,South,174,1.0,2.0,100,0.00,,,2.16,Wunderground v.1.15,2013-06-06 09:34:00,
2013-06-06 05:40:00,73.3,73.3,29.81,South,175,1.0,2.0,100,0.00,,,2.16,Wunderground v.1.15,2013-06-06 09:40:00,
2013-06-06 05:48:00,73.5,73.5,29.80,South,176,2.0,4.0,100,0.00,,,2.16,Wunderground v.1.15,2013-06-06 09:48:00,
2013-06-06 05:54:00,73.5,73.5,29.80,SSE,150,1.0,2.0,100,0.00,,,2.16,Wunderground v.1.15,2013-06-06 09:54:00,
2013-06-06 06:00:00,73.7,73.7,29.80,South,172,1.0,1.0,100,0.00,,,2.16,Wunderground v.1.15,2013-06-06 10:00:00,
2013-06-06 06:06:00,73.9,73.9,29.80,SSE,162,1.0,3.0,100,0.00,,,2.16,Wunderground v.1.15,2013-06-06 10:06:00,
2013-06-06 06:12:00,74.0,74.0,29.80,SSE,162,1.0,1.0,100,0.00,,,2.16,Wunderground v.1.15,2013-06-06 10:12:00,
2013-06-06 06:18:00,74.2,74.2,29.80,SSE,165,1.0,2.0,100,0.00,,,2.16,Wunderground v.1.15,2013-06-06 10:18:00,
2013-06-06 06:24:00,74.4,74.4,29.80,South,179,1.0,3.0,100,0.00,,,2.16,Wunderground v.1.15,2013-06-06 10:24:00,
2013-06-06 06:30:00,74.4,74.4,29.81,South,179,1.0,1.0,100,0.00,,,2.16,Wunderground v.1.15,2013-06-06 10:30:00,
2013-06-06 06:36:00,74.4,74.4,29.81,South,181,1.0,1.0,100,0.00,,,2.16,Wunderground v.1.15,2013-06-06 10:36:00,
2013-06-06 06:42:00,74.6,74.6,29.81,South,181,1.0,1.0,100,0.00,,,2.16,Wunderground v.1.15,2013-06-06 10:42:00,
2013-06-06 06:48:00,74.4,74.4,29.81,South,181,1.0,1.0,100,0.00,,,2.16,Wunderground v.1.15,2013-06-06 10:48:00,
2013-06-06 06:54:00,74.6,74.6,29.81,South,178,1.0,2.0,100,0.00,,,2.16,Wunderground v.1.15,2013-06-06 10:54:00,
2013-06-06 07:00:00,74.7,74.7,29.81,South,181,1.0,1.0,100,0.00,,,2.16,Wunderground v.1.15,2013-06-06 11:00:00,
2013-06-06 07:06:00,74.9,74.9,29.81,South,182,1.0,1.0,100,0.00,,,2.16,Wunderground v.1.15,2013-06-06 11:06:00,
2013-06-06 07:12:00,75.1,75.1,29.81,South,181,0.0,2.0,100,0.00,,,2.16,Wunderground v.1.15,2013-06-06 11:12:00,
2013-06-06 07:18:00,75.3,75.3,29.81,South,181,0.0,2.0,100,0.00,,,2.16,Wunderground v.1.15,2013-06-06 11:18:00,
2013-06-06 07:24:00,75.3,75.3,29.81,South,182,0.0,0.0,100,0.00,,,2.16,Wunderground v.1.15,2013-06-06 11:24:00,
2013-06-06 07:30:00,75.4,75.4,29.81,South,181,0.0,0.0,100,0.00,,,2.16,Wunderground v.1.15,2013-06-06 11:30:00,
2013-06-06 07:38:00,75.6,75.6,29.81,South,182,0.0,0.0,100,0.00,,,2.16,Wunderground v.1.15,2013-06-06 11:38:00,
2013-06-06 07:44:00,75.8,75.8,29.81,South,181,0.0,0.0,100,0.00,,,2.16,Wunderground v.1.15,2013-06-06 11:44:00,
2013-06-06 07:50:00,76.0,76.0,29.81,South,181,0.0,0.0,100,0.00,,,2.16,Wunderground v.1.15,2013-06-06 11:50:00,
2013-06-06 07:56:00,76.1,76.1,29.81,South,181,0.0,0.0,100,0.00,,,2.16,Wunderground v.1.15,2013-06-06 11:56:00,
2013-06-06 08:02:00,76.5,76.5,29.81,South,181,0.0,0.0,100,0.00,,,2.16,Wunderground v.1.15,2013-06-06 12:02:00,
2013-06-06 08:08:00,76.3,76.3,29.81,South,182,1.0,1.0,100,0.00,,,2.16,Wunderground v.1.15,2013-06-06 12:08:00,
2013-06-06 08:14:00,76.5,76.5,29.81,South,184,1.0,3.0,100,0.00,,,2.16,Wunderground v.1.15,2013-06-06 12:14:00,
2013-06-06 08:20:00,76.7,76.7,29.81,SW,215,0.0,1.0,100,0.00,,,2.16,Wunderground v.1.15,2013-06-06 12:20:00,
2013-06-06 08:26:00,77.0,77.0,29.81,SW,216,1.0,1.0,100,0.00,,,2.16,Wunderground v.1.15,2013-06-06 12:26:00,
2013-06-06 08:32:00,77.0,77.0,29.81,WSW,254,1.0,4.0,100,0.00,,,2.16,Wunderground v.1.15,2013-06-06 12:32:00,
2013-06-06 08:38:00,77.0,77.0,29.81,SW,232,1.0,4.0,100,0.00,,,2.16,Wunderground v.1.15,2013-06-06 12:38:00,
2013-06-06 08:44:00,77.0,77.0,29.82,WSW,248,0.0,1.0,100,0.00,,,2.16,Wunderground v.1.15,2013-06-06 12:44:00,
2013-06-06 08:50:00,77.0,77.0,29.82,WSW,248,1.0,1.0,100,0.00,,,2.16,Wunderground v.1.15,2013-06-06 12:50:00,
2013-06-06 08:56:00,77.0,76.7,29.82,WSW,237,1.0,1.0,99,0.00,,,2.16,Wunderground v.1.15,2013-06-06 12:56:00,
2013-06-06 09:02:00,77.4,77.1,29.82,WSW,237,0.0,1.0,99,0.00,,,2.16,Wunderground v.1.15,2013-06-06 13:02:00,
2013-06-06 09:08:00,77.4,76.5,29.82,SW,236,0.0,1.0,97,0.00,,,2.16,Wunderground v.1.15,2013-06-06 13:08:00,
2013-06-06 09:14:00,77.6,76.7,29.82,SW,236,0.0,1.0,97,0.00,,,2.16,Wunderground v.1.15,2013-06-06 13:14:00,
2013-06-06 09:20:00,77.6,76.7,29.82,SW,232,1.0,1.0,97,0.00,,,2.16,Wunderground v.1.15,2013-06-06 13:20:00,
2013-06-06 09:26:00,77.7,76.5,29.82,SW,233,1.0,1.0,96,0.00,,,2.16,Wunderground v.1.15,2013-06-06 13:26:00,
2013-06-06 09:32:00,77.7,76.5,29.83,SW,233,0.0,1.0,96,0.00,,,2.16,Wunderground v.1.15,2013-06-06 13:32:00,
2013-06-06 09:38:00,77.7,76.2,29.83,South,191,1.0,2.0,95,0.00,,,2.16,Wunderground v.1.15,2013-06-06 13:38:00,
2013-06-06 09:44:00,77.7,76.2,29.83,South,184,2.0,2.0,95,0.00,,,2.16,Wunderground v.1.15,2013-06-06 13:44:00,
2013-06-06 09:50:00,77.9,76.7,29.83,SSW,193,2.0,2.0,96,0.00,,,2.16,Wunderground v.1.15,2013-06-06 13:50:00,
2013-06-06 09:56:00,77.9,76.4,29.83,SSW,203,2.0,2.0,95,0.00,,,2.16,Wunderground v.1.15,2013-06-06 13:56:00,
2013-06-06 10:02:00,78.3,76.7,29.82,SW,217,2.0,2.0,95,0.00,,,2.16,Wunderground v.1.15,2013-06-06 14:02:00,
2013-06-06 10:08:00,78.1,76.6,29.82,ESE,113,2.0,2.0,95,0.00,,,2.16,Wunderground v.1.15,2013-06-06 14:08:00,
2013-06-06 10:14:00,77.9,76.7,29.83,SSE,150,2.0,3.0,96,0.00,,,2.16,Wunderground v.1.15,2013-06-06 14:14:00,
2013-06-06 10:20:00,77.7,76.5,29.83,South,175,3.0,5.0,96,0.00,,,2.16,Wunderground v.1.15,2013-06-06 14:20:00,
2013-06-06 10:26:00,77.7,76.8,29.83,South,169,3.0,5.0,97,0.00,,,2.16,Wunderground v.1.15,2013-06-06 14:26:00,
2013-06-06 10:32:00,77.7,76.5,29.82,South,171,2.0,3.0,96,0.00,,,2.16,Wunderground v.1.15,2013-06-06 14:32:00,
2013-06-06 10:38:00,77.7,76.2,29.82,SSE,157,3.0,5.0,95,0.00,,,2.16,Wunderground v.1.15,2013-06-06 14:38:00,
2013-06-06 10:44:00,77.7,76.5,29.83,South,184,3.0,3.0,96,0.00,,,2.16,Wunderground v.1.15,2013-06-06 14:44:00,
2013-06-06 10:50:00,77.6,76.4,29.83,SSE,160,3.0,3.0,96,0.00,,,2.16,Wunderground v.1.15,2013-06-06 14:50:00,
2013-06-06 10:56:00,77.7,76.2,29.83,South,181,3.0,3.0,95,0.00,,,2.16,Wunderground v.1.15,2013-06-06 14:56:00,
2013-06-06 11:02:00,77.9,76.7,29.83,South,188,2.0,4.0,96,0.00,,,2.16,Wunderground v.1.15,2013-06-06 15:02:00,
2013-06-06 11:08:00,77.7,76.2,29.83,SSE,155,3.0,4.0,95,0.00,,,2.16,Wunderground v.1.15,2013-06-06 15:08:00,
2013-06-06 11:14:00,77.9,76.0,29.83,SSE,150,3.0,5.0,94,0.00,,,2.16,Wunderground v.1.15,2013-06-06 15:14:00,
2013-06-06 11:20:00,78.5,76.0,29.83,SE,141,2.0,4.0,92,0.00,,,2.16,Wunderground v.1.15,2013-06-06 15:20:00,
2013-06-06 11:26:00,78.8,76.6,29.83,SSE,158,2.0,4.0,93,0.00,,,2.16,Wunderground v.1.15,2013-06-06 15:26:00,
2013-06-06 11:32:00,78.8,76.6,29.84,SE,127,2.0,6.0,93,0.00,,,2.16,Wunderground v.1.15,2013-06-06 15:32:00,
2013-06-06 11:38:00,78.6,76.1,29.84,SSE,167,2.0,6.0,92,0.00,,,2.16,Wunderground v.1.15,2013-06-06 15:38:00,
2013-06-06 11:44:00,78.8,75.3,29.83,ESE,116,2.0,3.0,89,0.00,,,2.16,Wunderground v.1.15,2013-06-06 15:44:00,
2013-06-06 11:50:00,79.2,74.6,29.83,SE,128,2.0,2.0,86,0.00,,,2.16,Wunderground v.1.15,2013-06-06 15:50:00,
2013-06-06 11:56:00,79.4,74.8,29.83,SSE,151,2.0,2.0,86,0.00,,,2.16,Wunderground v.1.15,2013-06-06 15:56:00,
2013-06-06 12:02:00,79.4,75.2,29.83,South,176,2.0,3.0,87,0.00,,,2.16,Wunderground v.1.15,2013-06-06 16:02:00,
2013-06-06 12:08:00,79.2,75.3,29.83,ESE,117,3.0,3.0,88,0.00,,,2.16,Wunderground v.1.15,2013-06-06 16:08:00,
2013-06-06 12:14:00,79.2,76.3,29.83,SSE,162,3.0,3.0,91,0.00,,,2.16,Wunderground v.1.15,2013-06-06 16:14:00,
2013-06-06 12:20:00,79.4,77.2,29.83,SE,126,3.0,3.0,93,0.00,,,2.16,Wunderground v.1.15,2013-06-06 16:20:00,
2013-06-06 12:26:00,78.8,76.3,29.83,SSE,148,3.0,6.0,92,0.00,,,2.16,Wunderground v.1.15,2013-06-06 16:26:00,
2013-06-06 12:32:00,78.6,75.8,29.83,SSE,151,4.0,4.0,91,0.00,,,2.16,Wunderground v.1.15,2013-06-06 16:32:00,
2013-06-06 12:38:00,78.8,75.3,29.83,SSE,167,3.0,5.0,89,0.00,,,2.16,Wunderground v.1.15,2013-06-06 16:38:00,
2013-06-06 12:44:00,79.0,75.8,29.83,South,175,3.0,6.0,90,0.00,,,2.16,Wunderground v.1.15,2013-06-06 16:44:00,
2013-06-06 12:50:00,79.0,75.5,29.83,SSW,199,3.0,6.0,89,0.00,,,2.16,Wunderground v.1.15,2013-06-06 16:50:00,
2013-06-06 12:56:00,78.8,74.9,29.83,SSE,154,3.0,6.0,88,0.00,,,2.16,Wunderground v.1.15,2013-06-06 16:56:00,
2013-06-06 13:02:00,79.2,75.7,29.83,SSE,158,3.0,3.0,89,0.00,,,2.16,Wunderground v.1.15,2013-06-06 17:02:00,
2013-06-06 13:08:00,79.2,77.0,29.83,South,174,3.0,8.0,93,0.00,,,2.16,Wunderground v.1.15,2013-06-06 17:08:00,
2013-06-06 13:14:00,79.0,77.4,29.82,SE,143,4.0,7.0,95,0.00,,,2.16,Wunderground v.1.15,2013-06-06 17:14:00,
2013-06-06 13:20:00,79.0,77.8,29.82,SE,136,4.0,4.0,96,0.00,,,2.16,Wunderground v.1.15,2013-06-06 17:20:00,
2013-06-06 13:26:00,78.8,77.9,29.82,SSE,158,4.0,7.0,97,0.00,,,2.16,Wunderground v.1.15,2013-06-06 17:26:00,
2013-06-06 13:32:00,78.6,77.7,29.81,SSE,157,5.0,5.0,97,0.00,,,2.16,Wunderground v.1.15,2013-06-06 17:32:00,
2013-06-06 13:38:00,78.8,77.9,29.81,SSE,151,4.0,6.0,97,0.00,,,2.16,Wunderground v.1.15,2013-06-06 17:38:00,
2013-06-06 13:44:00,78.6,77.7,29.81,SE,127,6.0,13.0,97,0.00,,,2.16,Wunderground v.1.15,2013-06-06 17:44:00,
2013-06-06 13:50:00,78.8,77.6,29.81,South,186,6.0,6.0,96,0.00,,,2.16,Wunderground v.1.15,2013-06-06 17:50:00,
2013-06-06 13:56:00,78.8,77.2,29.81,SSW,199,5.0,10.0,95,0.00,,,2.16,Wunderground v.1.15,2013-06-06 17:56:00,
2013-06-06 14:02:00,78.8,76.3,29.80,SSE,155,5.0,10.0,92,0.00,,,2.16,Wunderground v.1.15,2013-06-06 18:02:00,
2013-06-06 14:08:00,78.8,76.3,29.80,South,176,5.0,10.0,92,0.00,,,2.16,Wunderground v.1.15,2013-06-06 18:08:00,
2013-06-06 14:14:00,79.0,76.5,29.80,SSE,168,6.0,7.0,92,0.00,,,2.16,Wunderground v.1.15,2013-06-06 18:14:00,
2013-06-06 14:20:00,79.0,76.8,29.80,South,174,5.0,7.0,93,0.00,,,2.16,Wunderground v.1.15,2013-06-06 18:20:00,
2013-06-06 14:26:00,78.8,76.6,29.80,SSE,154,4.0,7.0,93,0.00,,,2.16,Wunderground v.1.15,2013-06-06 18:26:00,
2013-06-06 14:32:00,78.8,76.6,29.79,SSE,167,5.0,5.0,93,0.00,,,2.16,Wunderground v.1.15,2013-06-06 18:32:00,
2013-06-06 14:38:00,78.6,76.7,29.79,SSE,162,5.0,5.0,94,0.00,,,2.16,Wunderground v.1.15,2013-06-06 18:38:00,
2013-06-06 14:44:00,78.6,77.4,29.79,South,169,5.0,7.0,96,0.00,,,2.16,Wunderground v.1.15,2013-06-06 18:44:00,
2013-06-06 14:50:00,78.3,76.7,29.79,SSE,157,6.0,10.0,95,0.00,,,2.16,Wunderground v.1.15,2013-06-06 18:50:00,
2013-06-06 14:56:00,78.3,76.7,29.79,SE,130,7.0,10.0,95,0.00,,,2.16,Wunderground v.1.15,2013-06-06 18:56:00,
2013-06-06 15:02:00,78.3,76.4,29.79,SE,138,6.0,6.0,94,0.00,,,2.16,Wunderground v.1.15,2013-06-06 19:02:00,
2013-06-06 15:08:00,78.1,76.2,29.79,SSE,164,6.0,7.0,94,0.00,,,2.16,Wunderground v.1.15,2013-06-06 19:08:00,
2013-06-06 15:14:00,77.7,76.5,29.78,SE,124,7.0,8.0,96,0.00,,,2.16,Wunderground v.1.15,2013-06-06 19:14:00,
2013-06-06 15:20:00,77.2,76.6,29.78,SSE,152,5.0,5.0,98,0.00,,,2.17,Wunderground v.1.15,2013-06-06 19:20:00,
2013-06-06 15:26:00,76.8,76.2,29.78,SE,137,6.0,7.0,98,0.00,,,2.17,Wunderground v.1.15,2013-06-06 19:26:00,
2013-06-06 15:32:00,77.0,76.4,29.77,SE,143,5.0,11.0,98,0.00,,,2.17,Wunderground v.1.15,2013-06-06 19:32:00,
2013-06-06 15:34:00,77.0,76.4,29.77,SSE,147,5.0,11.0,98,0.00,,,2.17,Wunderground v.1.15,2013-06-06 19:34:00,
2013-06-06 15:40:00,77.2,76.0,29.77,SE,141,4.0,4.0,96,0.00,,,2.17,Wunderground v.1.15,2013-06-06 19:40:00,
2013-06-06 15:46:00,77.4,75.9,29.77,SSE,154,4.0,11.0,95,0.00,,,2.17,Wunderground v.1.15,2013-06-06 19:46:00,
2013-06-06 15:52:00,77.4,75.9,29.77,ESE,121,4.0,4.0,95,0.00,,,2.17,Wunderground v.1.15,2013-06-06 19:52:00,
2013-06-06 15:58:00,77.4,75.5,29.77,SSE,167,4.0,4.0,94,0.00,,,2.17,Wunderground v.1.15,2013-06-06 19:58:00,
2013-06-06 16:04:00,77.2,75.0,29.76,SE,145,4.0,4.0,93,0.00,,,2.17,Wunderground v.1.15,2013-06-06 20:04:00,
2013-06-06 16:10:00,77.4,75.5,29.76,ESE,121,4.0,7.0,94,0.00,,,2.17,Wunderground v.1.15,2013-06-06 20:10:00,
2013-06-06 16:16:00,77.6,75.7,29.75,SE,131,4.0,7.0,94,0.00,,,2.17,Wunderground v.1.15,2013-06-06 20:16:00,
2013-06-06 16:22:00,77.4,75.2,29.75,ESE,114,4.0,5.0,93,0.00,,,2.17,Wunderground v.1.15,2013-06-06 20:22:00,
2013-06-06 16:28:00,77.4,75.2,29.75,SE,140,4.0,6.0,93,0.00,,,2.17,Wunderground v.1.15,2013-06-06 20:28:00,
2013-06-06 16:34:00,77.6,75.7,29.75,SSE,151,5.0,5.0,94,0.00,,,2.17,Wunderground v.1.15,2013-06-06 20:34:00,
2013-06-06 16:40:00,77.6,75.7,29.75,SE,141,4.0,4.0,94,0.00,,,2.17,Wunderground v.1.15,2013-06-06 20:40:00,
2013-06-06 16:46:00,77.9,76.0,29.74,SE,143,4.0,4.0,94,0.00,,,2.17,Wunderground v.1.15,2013-06-06 20:46:00,
2013-06-06 16:52:00,78.1,75.9,29.74,SE,133,4.0,8.0,93,0.00,,,2.17,Wunderground v.1.15,2013-06-06 20:52:00,
2013-06-06 16:58:00,78.1,75.9,29.74,ESE,123,5.0,13.0,93,0.00,,,2.17,Wunderground v.1.15,2013-06-06 20:58:00,
2013-06-06 17:04:00,78.1,76.2,29.73,SE,134,5.0,6.0,94,0.00,,,2.17,Wunderground v.1.15,2013-06-06 21:04:00,
2013-06-06 17:10:00,78.1,76.2,29.73,SE,137,5.0,5.0,94,0.00,,,2.17,Wunderground v.1.15,2013-06-06 21:10:00,
2013-06-06 17:16:00,78.3,76.4,29.73,SE,144,5.0,7.0,94,0.00,,,2.17,Wunderground v.1.15,2013-06-06 21:16:00,
2013-06-06 17:24:00,78.3,76.7,29.73,SE,144,5.0,6.0,95,0.00,,,2.17,Wunderground v.1.15,2013-06-06 21:24:00,
2013-06-06 17:30:00,78.3,76.7,29.72,SE,127,6.0,6.0,95,0.00,,,2.17,Wunderground v.1.15,2013-06-06 21:30:00,
2013-06-06 17:36:00,78.1,76.2,29.72,SSE,167,6.0,8.0,94,0.00,,,2.17,Wunderground v.1.15,2013-06-06 21:36:00,
2013-06-06 17:42:00,78.1,76.6,29.72,SE,126,6.0,8.0,95,0.00,,,2.17,Wunderground v.1.15,2013-06-06 21:42:00,
2013-06-06 17:48:00,78.1,76.9,29.72,ESE,110,6.0,8.0,96,0.00,,,2.17,Wunderground v.1.15,2013-06-06 21:48:00,
2013-06-06 17:54:00,77.9,76.7,29.72,SSE,150,5.0,10.0,96,0.00,,,2.17,Wunderground v.1.15,2013-06-06 21:54:00,
2013-06-06 18:00:00,77.7,76.8,29.71,SE,124,5.0,7.0,97,0.00,,,2.17,Wunderground v.1.15,2013-06-06 22:00:00,
2013-06-06 18:06:00,77.6,76.4,29.71,SSE,147,5.0,12.0,96,0.00,,,2.17,Wunderground v.1.15,2013-06-06 22:06:00,
2013-06-06 18:12:00,77.6,75.7,29.71,SE,141,8.0,14.0,94,0.00,,,2.17,Wunderground v.1.15,2013-06-06 22:12:00,
2013-06-06 18:18:00,77.6,74.8,29.71,SE,128,9.0,16.0,91,0.00,,,2.17,Wunderground v.1.15,2013-06-06 22:18:00,
2013-06-06 18:24:00,77.4,73.6,29.71,SE,126,8.0,9.0,88,0.00,,,2.17,Wunderground v.1.15,2013-06-06 22:24:00,
2013-06-06 18:30:00,77.6,74.4,29.71,SE,138,8.0,8.0,90,0.00,,,2.17,Wunderground v.1.15,2013-06-06 22:30:00,
2013-06-06 18:36:00,77.4,74.6,29.71,SE,140,7.0,10.0,91,0.00,,,2.17,Wunderground v.1.15,2013-06-06 22:36:00,
2013-06-06 18:42:00,77.0,74.8,29.71,SE,136,7.0,14.0,93,0.00,,,2.17,Wunderground v.1.15,2013-06-06 22:42:00,
2013-06-06 18:48:00,76.7,75.2,29.70,SE,133,9.0,14.0,95,0.00,,,2.17,Wunderground v.1.15,2013-06-06 22:48:00,
2013-06-06 18:54:00,76.5,75.6,29.70,ESE,123,9.0,13.0,97,0.00,,,2.17,Wunderground v.1.15,2013-06-06 22:54:00,
2013-06-06 19:00:00,76.0,75.7,29.70,SE,144,8.0,8.0,99,0.00,,,2.18,Wunderground v.1.15,2013-06-06 23:00:00,
2013-06-06 19:06:00,75.3,75.3,29.70,SSE,150,9.0,20.0,100,0.13,,,2.20,Wunderground v.1.15,2013-06-06 23:06:00,
2013-06-06 19:12:00,74.7,74.7,29.70,SE,137,10.0,10.0,100,0.10,,,2.21,Wunderground v.1.15,2013-06-06 23:12:00,
2013-06-06 19:18:00,74.2,73.9,29.70,SE,130,10.0,17.0,99,0.06,,,2.21,Wunderground v.1.15,2013-06-06 23:18:00,
2013-06-06 19:24:00,74.2,73.9,29.70,SE,128,10.0,14.0,99,0.04,,,2.22,Wunderground v.1.15,2013-06-06 23:24:00,
2013-06-06 19:30:00,73.0,72.1,29.70,SE,138,8.0,8.0,97,0.04,,,2.22,Wunderground v.1.15,2013-06-06 23:30:00,
2013-06-06 19:36:00,73.3,73.0,29.70,ESE,119,7.0,9.0,99,0.06,,,2.23,Wunderground v.1.15,2013-06-06 23:36:00,
2013-06-06 19:42:00,73.5,73.5,29.70,SE,131,7.0,7.0,100,0.06,,,2.23,Wunderground v.1.15,2013-06-06 23:42:00,
2013-06-06 19:48:00,72.8,72.8,29.70,SE,127,6.0,7.0,100,0.29,,,2.27,Wunderground v.1.15,2013-06-06 23:48:00,
2013-06-06 19:54:00,72.3,72.3,29.70,SE,126,5.0,7.0,100,0.17,,,2.29,Wunderground v.1.15,2013-06-06 23:54:00,
2013-06-06 20:00:00,72.7,72.7,29.69,ESE,123,5.0,7.0,100,0.32,,,2.31,Wunderground v.1.15,2013-06-07 00:00:00,
2013-06-06 20:06:00,72.8,72.8,29.69,ESE,107,5.0,9.0,100,0.19,,,2.33,Wunderground v.1.15,2013-06-07 00:06:00,
2013-06-06 20:12:00,73.0,73.0,29.69,SE,127,5.0,10.0,100,0.30,,,2.37,Wunderground v.1.15,2013-06-07 00:12:00,
2013-06-06 20:18:00,73.3,73.3,29.69,ESE,109,6.0,10.0,100,0.35,,,2.43,Wunderground v.1.15,2013-06-07 00:18:00,
2013-06-06 20:24:00,73.9,73.9,29.69,ESE,106,7.0,14.0,100,0.20,,,2.45,Wunderground v.1.15,2013-06-07 00:24:00,
2013-06-06 20:30:00,74.4,74.4,29.68,ESE,110,9.0,10.0,100,0.08,,,2.46,Wunderground v.1.15,2013-06-07 00:30:00,
2013-06-06 20:36:00,74.6,74.6,29.68,SE,126,9.0,11.0,100,0.08,,,2.46,Wunderground v.1.15,2013-06-07 00:36:00,
2013-06-06 20:42:00,74.9,74.9,29.68,ESE,116,10.0,16.0,100,0.08,,,2.47,Wunderground v.1.15,2013-06-07 00:42:00,
2013-06-06 20:48:00,74.9,74.9,29.67,SE,143,11.0,16.0,100,0.08,,,2.48,Wunderground v.1.15,2013-06-07 00:48:00,
2013-06-06 20:54:00,74.7,74.7,29.67,ESE,121,12.0,19.0,100,0.10,,,2.49,Wunderground v.1.15,2013-06-07 00:54:00,
2013-06-06 21:00:00,74.9,74.9,29.67,East,90,10.0,10.0,100,0.25,,,2.51,Wunderground v.1.15,2013-06-07 01:00:00,
2013-06-06 21:06:00,74.9,74.9,29.67,SE,130,9.0,10.0,100,0.16,,,2.52,Wunderground v.1.15,2013-06-07 01:06:00,
2013-06-06 21:12:00,74.9,74.9,29.67,SSE,147,8.0,12.0,100,0.07,,,2.53,Wunderground v.1.15,2013-06-07 01:12:00,
2013-06-06 21:18:00,75.1,75.1,29.67,SE,140,9.0,12.0,100,0.07,,,2.53,Wunderground v.1.15,2013-06-07 01:18:00,
2013-06-06 21:24:00,75.1,75.1,29.67,SE,143,9.0,10.0,100,0.05,,,2.53,Wunderground v.1.15,2013-06-07 01:24:00,
2013-06-06 21:30:00,75.3,75.3,29.65,SE,128,8.0,8.0,100,0.00,,,2.53,Wunderground v.1.15,2013-06-07 01:30:00,
2013-06-06 21:36:00,75.4,75.4,29.65,SE,124,8.0,11.0,100,0.00,,,2.53,Wunderground v.1.15,2013-06-07 01:36:00,
2013-06-06 21:42:00,75.6,75.6,29.65,ESE,114,9.0,11.0,100,0.00,,,2.53,Wunderground v.1.15,2013-06-07 01:42:00,
2013-06-06 21:48:00,75.8,75.8,29.65,ESE,113,9.0,11.0,100,0.00,,,2.53,Wunderground v.1.15,2013-06-07 01:48:00,
2013-06-06 21:54:00,76.0,76.0,29.65,SE,124,9.0,11.0,100,0.00,,,2.53,Wunderground v.1.15,2013-06-07 01:54:00,
2013-06-06 22:00:00,76.1,76.1,29.65,ESE,121,11.0,13.0,100,1.10,,,2.58,Wunderground v.1.15,2013-06-07 02:00:00,
2013-06-06 22:08:00,75.8,75.8,29.65,ESE,112,14.0,21.0,100,0.87,,,2.69,Wunderground v.1.15,2013-06-07 02:08:00,
2013-06-06 22:14:00,75.6,75.6,29.64,SSE,158,13.0,15.0,100,0.51,,,2.76,Wunderground v.1.15,2013-06-07 02:14:00,
2013-06-06 22:20:00,75.3,75.3,29.64,ESE,116,10.0,10.0,100,0.08,,,2.76,Wunderground v.1.15,2013-06-07 02:20:00,
2013-06-06 22:26:00,75.4,75.4,29.64,SSE,152,8.0,10.0,100,0.05,,,2.76,Wunderground v.1.15,2013-06-07 02:26:00,
2013-06-06 22:32:00,75.3,75.3,29.64,SE,134,7.0,11.0,100,0.04,,,2.77,Wunderground v.1.15,2013-06-07 02:32:00,
2013-06-06 22:38:00,75.6,75.6,29.64,SE,138,8.0,11.0,100,0.04,,,2.77,Wunderground v.1.15,2013-06-07 02:38:00,
2013-06-06 22:44:00,75.6,75.6,29.62,ESE,113,7.0,8.0,100,0.04,,,2.77,Wunderground v.1.15,2013-06-07 02:44:00,
2013-06-06 22:50:00,75.8,75.8,29.62,ESE,112,7.0,7.0,100,0.00,,,2.77,Wunderground v.1.15,2013-06-07 02:50:00,
2013-06-06 22:56:00,76.1,76.1,29.62,SE,131,7.0,8.0,100,0.00,,,2.77,Wunderground v.1.15,2013-06-07 02:56:00,
2013-06-06 23:02:00,76.3,76.3,29.61,ESE,110,6.0,10.0,100,0.00,,,0.00,Wunderground v.1.15,2013-06-07 03:02:00,
2013-06-06 23:08:00,76.5,76.5,29.61,SE,137,6.0,10.0,100,0.00,,,0.00,Wunderground v.1.15,2013-06-07 03:08:00,
2013-06-06 23:14:00,76.7,76.7,29.60,ESE,112,7.0,10.0,100,0.00,,,0.00,Wunderground v.1.15,2013-06-07 03:14:00,
2013-06-06 23:20:00,76.7,76.7,29.60,SE,124,6.0,12.0,100,0.00,,,0.00,Wunderground v.1.15,2013-06-07 03:20:00,
2013-06-06 23:26:00,76.7,76.7,29.60,ESE,120,7.0,12.0,100,0.00,,,0.00,Wunderground v.1.15,2013-06-07 03:26:00,
2013-06-06 23:32:00,76.7,76.7,29.61,ESE,119,9.0,14.0,100,0.00,,,0.00,Wunderground v.1.15,2013-06-07 03:32:00,
2013-06-06 23:38:00,76.5,76.5,29.61,ESE,113,9.0,14.0,100,0.00,,,0.00,Wunderground v.1.15,2013-06-07 03:38:00,
2013-06-06 23:44:00,76.3,76.3,29.60,South,181,6.0,8.0,100,0.00,,,0.00,Wunderground v.1.15,2013-06-07 03:44:00,
2013-06-06 23:50:00,76.0,76.0,29.60,SSE,165,6.0,6.0,100,0.00,,,0.00,Wunderground v.1.15,2013-06-07 03:50:00,
2013-06-06 23:56:00,76.5,76.5,29.60,SE,130,7.0,10.0,100,0.00,,,0.00,Wunderground v.1.15,2013-06-07 03:56:00,